Time;durP1;ratioP1;P1;durP2;ratioP2;P2;SDS_P1;SDS_P2;PMS_P1;PMS_P2;Temp;Humidity;BMP_temperature;BMP_pressure;BME280_temperature;BME280_humidity;BME280_pressure;Samples;Min_cycle;Max_cycle;Signal;HPM_P1;HPM_P2
2022/09/01 00:01:49;;;;;;;;;;;;;;;20.80;46.06;100912.16;4962264;28;6796;-75
2022/09/01 00:04:22;;;;;;;;;;;;;;;20.80;46.27;100908.72;4966324;28;6812;-75
2022/09/01 00:06:48;;;;;;;;;;;;;;;20.77;46.13;100912.13;4979550;28;6792;-75
2022/09/01 00:09:19;;;;;;;;;;;;;;;20.76;46.02;100907.78;4983424;28;6967;-74
2022/09/01 00:11:49;;;;;;;;;;;;;;;20.74;46.15;100906.91;4984549;28;7171;-75
2022/09/01 00:14:15;;;;;;;;;;;;;;;20.73;46.46;100906.88;4983604;28;6807;-75
2022/09/01 00:16:41;;;;;;;;;;;;;;;20.72;46.60;100907.72;4981029;28;7028;-75
2022/09/01 00:19:07;;;;;;;;;;;;;;;20.69;46.40;100911.16;4986332;28;6919;-75
2022/09/01 00:21:40;;;;;;;;;;;;;;;20.68;46.38;100915.50;4960545;28;7044;-75
2022/09/01 00:24:09;;;;;;;;;;;;;;;20.67;46.48;100915.47;4984086;28;9530;-75
2022/09/01 00:26:35;;;;;;;;;;;;;;;20.66;46.46;100913.72;4981673;28;7276;-75
2022/09/01 00:29:02;;;;;;;;;;;;;;;20.63;46.94;100911.94;4984825;28;6852;-75
2022/09/01 00:31:27;;;;;;;;;;;;;;;20.62;46.83;100911.94;4976253;28;6811;-75
2022/09/01 00:33:53;;;;;;;;;;;;;;;20.62;46.78;100911.94;4978773;28;7003;-75
2022/09/01 00:36:19;;;;;;;;;;;;;;;20.60;46.57;100914.50;4979576;28;8180;-75
2022/09/01 00:38:46;;;;;;;;;;;;;;;20.59;46.65;100912.75;4967367;28;7463;-75
2022/09/01 00:41:12;;;;;;;;;;;;;;;20.60;47.02;100914.50;4965971;28;7832;-75
2022/09/01 00:43:47;;;;;;;;;;;;;;;20.57;46.32;100914.47;4979950;28;7842;-75
2022/09/01 00:46:31;;;;;;;;;;;;;;;20.57;46.93;100918.78;4975339;28;8568;-75
2022/09/01 00:49:31;;;;;;;;;;;;;;;20.54;47.06;100914.41;4962532;28;7148;-75
2022/09/01 00:52:26;;;;;;;;;;;;;;;20.51;46.95;100915.22;4970205;28;7163;-75
2022/09/01 00:54:57;;;;;;;;;;;;;;;20.49;46.84;100916.09;4983122;28;7299;-75
2022/09/01 00:57:24;;;;;;;;;;;;;;;20.47;47.30;100910.84;4985086;28;7191;-75
2022/09/01 01:00:17;;;;;;;;;;;;;;;20.45;46.87;100914.25;4967977;28;8180;-75
2022/09/01 01:02:43;;;;;;;;;;;;;;;20.43;46.61;100916.88;4978828;28;11267;-75
2022/09/01 01:05:11;;;;;;;;;;;;;;;20.42;47.37;100903.81;4981536;28;6780;-75
2022/09/01 01:07:43;;;;;;;;;;;;;;;20.42;47.11;100909.88;4983968;28;6949;-75
2022/09/01 01:10:16;;;;;;;;;;;;;;;20.40;46.75;100907.28;4981064;28;6788;-75
2022/09/01 01:12:42;;;;;;;;;;;;;;;20.40;47.37;100914.19;4986106;28;7003;-75
2022/09/01 01:15:11;;;;;;;;;;;;;;;20.38;47.11;100910.69;4963601;28;7035;-75
2022/09/01 01:17:38;;;;;;;;;;;;;;;20.37;47.60;100908.94;4986961;28;7781;-75
2022/09/01 01:23:19;;;;;;;;;;;;;;;20.30;47.34;100910.59;4969732;28;6820;-75
2022/09/01 01:25:55;;;;;;;;;;;;;;;20.26;47.00;100911.38;4988824;28;6832;-75
2022/09/01 01:28:35;;;;;;;;;;;;;;;20.24;47.46;100900.97;4970794;28;6954;-75
2022/09/01 01:31:17;;;;;;;;;;;;;;;20.24;47.13;100900.06;4984772;28;6804;-75
2022/09/01 01:33:48;;;;;;;;;;;;;;;20.22;47.28;100901.78;4983221;28;7203;-75
2022/09/01 01:36:31;;;;;;;;;;;;;;;20.21;47.86;100895.69;4987435;28;7647;-75
2022/09/01 01:39:05;;;;;;;;;;;;;;;20.21;47.97;100889.63;4973442;28;7730;-75
2022/09/01 01:41:33;;;;;;;;;;;;;;;20.20;47.63;100896.53;4969825;28;7011;-75
2022/09/01 01:44:03;;;;;;;;;;;;;;;20.20;47.30;100899.13;4985792;28;6788;-75
2022/09/01 01:46:32;;;;;;;;;;;;;;;20.22;47.71;100899.16;4968221;28;6793;-75
2022/09/01 01:49:01;;;;;;;;;;;;;;;20.23;48.15;100898.31;4990372;28;6816;-75
2022/09/01 01:51:27;;;;;;;;;;;;;;;20.23;47.65;100906.13;4982066;28;6804;-75
2022/09/01 01:53:55;;;;;;;;;;;;;;;20.23;47.39;100914.81;4987119;28;7702;-75
2022/09/01 01:56:25;;;;;;;;;;;;;;;20.23;47.28;100914.81;4986047;28;6792;-75
2022/09/01 01:58:57;;;;;;;;;;;;;;;20.22;47.91;100925.19;4966084;28;7009;-75
2022/09/01 02:01:27;;;;;;;;;;;;;;;20.19;47.84;100918.22;4968055;28;6803;-75
2022/09/01 02:03:56;;;;;;;;;;;;;;;20.17;47.58;100922.53;4981541;28;6816;-75
2022/09/01 02:06:24;;;;;;;;;;;;;;;20.12;47.89;100922.44;4979802;28;9618;-75
2022/09/01 02:08:57;;;;;;;;;;;;;;;20.10;48.25;100918.94;4982463;28;6800;-75
2022/09/01 02:11:26;;;;;;;;;;;;;;;20.05;48.29;100915.38;4981752;28;6824;-75
2022/09/01 02:13:55;;;;;;;;;;;;;;;20.02;47.77;100917.03;4986933;28;6796;-75
2022/09/01 02:16:24;;;;;;;;;;;;;;;19.98;48.13;100916.09;4980120;28;6812;-75
2022/09/01 02:18:50;;;;;;;;;;;;;;;19.96;47.88;100915.22;4950527;28;7012;-75
2022/09/01 02:21:20;;;;;;;;;;;;;;;19.92;48.51;100916.00;4987847;28;7279;-75
2022/09/01 02:24:02;;;;;;;;;;;;;;;19.91;48.35;100919.44;4989753;28;6804;-75
2022/09/01 02:26:38;;;;;;;;;;;;;;;19.88;48.04;100915.06;4984403;28;7842;-75
2022/09/01 02:29:16;;;;;;;;;;;;;;;19.85;47.93;100915.00;4984259;28;6807;-75
2022/09/01 02:31:45;;;;;;;;;;;;;;;19.80;48.14;100912.31;4982444;28;7272;-75
2022/09/01 02:34:12;;;;;;;;;;;;;;;19.76;48.42;100909.66;4984861;28;6851;-75
2022/09/01 02:36:50;;;;;;;;;;;;;;;19.73;48.24;100910.44;4948203;28;7469;-75
2022/09/01 02:39:22;;;;;;;;;;;;;;;19.66;48.66;100911.19;4987116;28;7258;-74
2022/09/01 02:41:48;;;;;;;;;;;;;;;19.58;48.68;100913.66;4985347;28;6804;-74
2022/09/01 02:44:14;;;;;;;;;;;;;;;19.55;48.82;100918.75;4970494;28;6990;-74
2022/09/01 02:46:45;;;;;;;;;;;;;;;19.51;48.73;100912.66;4985881;28;6788;-74
2022/09/01 02:49:23;;;;;;;;;;;;;;;19.46;48.73;100909.06;4986569;28;6788;-74
2022/09/01 02:51:52;;;;;;;;;;;;;;;19.41;49.28;100910.69;4983595;28;6867;-74
2022/09/01 02:54:24;;;;;;;;;;;;;;;19.37;48.96;100915.00;4986163;28;6851;-74
2022/09/01 02:56:53;;;;;;;;;;;;;;;19.33;48.90;100910.56;4987449;28;6831;-74
2022/09/01 02:59:22;;;;;;;;;;;;;;;19.29;48.91;100903.56;4984489;28;6905;-74
2022/09/01 03:01:51;;;;;;;;;;;;;;;19.25;49.85;100915.59;4982793;28;6995;-74
2022/09/01 03:04:21;;;;;;;;;;;;;;;19.22;49.46;100905.16;4987351;28;7119;-74
2022/09/01 03:06:46;;;;;;;;;;;;;;;19.19;49.49;100910.28;4963480;28;7019;-74
2022/09/01 03:09:16;;;;;;;;;;;;;;;19.16;49.27;100899.84;4989671;28;6788;-74
2022/09/01 03:11:48;;;;;;;;;;;;;;;19.13;50.11;100905.81;4971553;28;6965;-74
2022/09/01 03:14:13;;;;;;;;;;;;;;;19.12;49.68;100898.88;4963249;28;7389;-74
2022/09/01 03:16:40;;;;;;;;;;;;;;;19.11;49.66;100896.25;4971437;28;6964;-74
2022/09/01 03:19:08;;;;;;;;;;;;;;;19.10;50.12;100904.88;4985416;28;8232;-74
2022/09/01 03:21:39;;;;;;;;;;;;;;;19.09;49.79;100900.53;4977986;28;8281;-74
2022/09/01 03:24:08;;;;;;;;;;;;;;;19.07;50.47;100905.69;4983929;28;6788;-74
2022/09/01 03:26:35;;;;;;;;;;;;;;;19.05;50.23;100901.34;4984698;28;6799;-74
2022/09/01 03:29:01;;;;;;;;;;;;;;;19.05;50.10;100907.38;4980782;28;6788;-74
2022/09/01 03:31:28;;;;;;;;;;;;;;;19.03;50.51;100898.69;4964422;28;8350;-74
2022/09/01 03:33:57;;;;;;;;;;;;;;;19.00;50.04;100909.88;4966847;28;6780;-74
2022/09/01 03:36:24;;;;;;;;;;;;;;;18.97;49.93;100909.78;4980725;28;6796;-74
2022/09/01 03:38:51;;;;;;;;;;;;;;;18.93;50.06;100904.50;4978278;28;6800;-74
2022/09/01 03:41:23;;;;;;;;;;;;;;;18.91;50.21;100908.78;4979551;28;6792;-75
2022/09/01 03:43:53;;;;;;;;;;;;;;;18.86;49.92;100909.56;4980052;28;7003;-74
2022/09/01 03:46:21;;;;;;;;;;;;;;;18.84;50.34;100907.78;4982152;28;6863;-74
2022/09/01 03:48:51;;;;;;;;;;;;;;;18.83;50.53;100908.59;4980154;28;9062;-74
2022/09/01 03:51:21;;;;;;;;;;;;;;;18.79;50.66;100901.59;4983929;28;6860;-74
2022/09/01 03:53:48;;;;;;;;;;;;;;;18.77;50.92;100895.50;4982209;28;7383;-74
2022/09/01 03:56:15;;;;;;;;;;;;;;;18.74;50.73;100902.38;4982549;28;6803;-74
2022/09/01 03:58:45;;;;;;;;;;;;;;;18.72;50.97;100904.06;4990057;28;7185;-74
2022/09/01 04:01:14;;;;;;;;;;;;;;;18.70;51.22;100905.75;4981724;28;6888;-74
2022/09/01 04:03:44;;;;;;;;;;;;;;;18.68;50.80;100906.53;4979355;28;6793;-75
2022/09/01 04:06:10;;;;;;;;;;;;;;;18.64;50.71;100903.03;4965064;28;6808;-74
2022/09/01 04:08:35;;;;;;;;;;;;;;;18.62;51.29;100901.22;4987003;28;6966;-74
2022/09/01 04:11:12;;;;;;;;;;;;;;;18.59;50.76;100902.91;4980596;28;7593;-74
2022/09/01 04:13:40;;;;;;;;;;;;;;;18.54;51.01;100898.44;4967411;28;6792;-74
2022/09/01 04:19:25;;;;;;;;;;;;;;;18.44;51.12;100902.56;4971447;28;6812;-74
2022/09/01 04:21:55;;;;;;;;;;;;;;;18.41;51.20;100911.13;4984570;28;7019;-74
2022/09/01 04:24:23;;;;;;;;;;;;;;;18.40;51.86;100906.78;4978225;28;6989;-74
2022/09/01 04:26:51;;;;;;;;;;;;;;;18.39;51.68;100910.22;4976196;28;6995;-74
2022/09/01 04:29:22;;;;;;;;;;;;;;;18.38;51.82;100899.81;4980068;28;7177;-75
2022/09/01 04:31:50;;;;;;;;;;;;;;;18.37;52.03;100904.13;4979879;28;6816;-74
2022/09/01 04:34:16;;;;;;;;;;;;;;;18.36;51.78;100910.16;4980421;28;6816;-74
2022/09/01 04:36:44;;;;;;;;;;;;;;;18.36;51.52;100909.28;4981389;28;6840;-74
2022/09/01 04:39:12;;;;;;;;;;;;;;;18.34;51.63;100917.00;4966722;28;7881;-75
2022/09/01 04:41:44;;;;;;;;;;;;;;;18.32;51.80;100911.81;4981594;28;6796;-75
2022/09/01 04:44:11;;;;;;;;;;;;;;;18.31;51.41;100907.47;4977903;28;6796;-75
2022/09/01 04:46:41;;;;;;;;;;;;;;;18.31;51.74;100911.75;4943475;28;7242;-74
2022/09/01 04:49:09;;;;;;;;;;;;;;;18.30;51.93;100910.00;4954409;28;7250;-74
2022/09/01 04:51:45;;;;;;;;;;;;;;;18.29;51.74;100913.44;4993416;28;6989;-74
2022/09/01 04:54:13;;;;;;;;;;;;;;;18.29;52.14;100913.44;4988132;28;6799;-74
2022/09/01 04:56:44;;;;;;;;;;;;;;;18.28;52.12;100914.28;4990058;28;6863;-74
2022/09/01 04:59:12;;;;;;;;;;;;;;;18.27;52.01;100921.19;4990683;28;6871;-74
2022/09/01 05:01:42;;;;;;;;;;;;;;;18.28;51.96;100919.47;4974656;28;7441;-74
2022/09/01 05:04:13;;;;;;;;;;;;;;;18.29;52.73;100921.22;4986545;28;7146;-74
2022/09/01 05:06:48;;;;;;;;;;;;;;;18.28;52.53;100917.75;4968997;28;7695;-74
2022/09/01 05:09:17;;;;;;;;;;;;;;;18.29;51.91;100918.63;4984579;28;6810;-74
2022/09/01 05:11:44;;;;;;;;;;;;;;;18.29;52.51;100922.09;4976578;28;6990;-74
2022/09/01 05:14:11;;;;;;;;;;;;;;;18.28;52.11;100915.16;4984791;28;7717;-74
2022/09/01 05:16:39;;;;;;;;;;;;;;;18.29;52.26;100918.63;4984847;28;7242;-74
2022/09/01 05:19:13;;;;;;;;;;;;;;;18.29;52.21;100918.63;4990180;28;6883;-74
2022/09/01 05:21:44;;;;;;;;;;;;;;;18.29;52.40;100919.50;4989420;28;7344;-74
2022/09/01 05:24:14;;;;;;;;;;;;;;;18.30;52.47;100921.28;4991587;28;7268;-74
2022/09/01 05:26:41;;;;;;;;;;;;;;;18.31;52.78;100922.13;4990530;28;6796;-74
2022/09/01 05:29:12;;;;;;;;;;;;;;;18.31;52.54;100923.03;4986595;28;6879;-74
2022/09/01 05:31:40;;;;;;;;;;;;;;;18.34;52.48;100922.19;4972828;28;7005;-74
2022/09/01 05:34:08;;;;;;;;;;;;;;;18.36;53.06;100924.84;4968483;28;7422;-74
2022/09/01 05:36:38;;;;;;;;;;;;;;;18.39;52.57;100931.00;4986771;28;7391;-74
2022/09/01 05:39:05;;;;;;;;;;;;;;;18.42;52.93;100925.88;4985378;28;6843;-74
2022/09/01 05:41:34;;;;;;;;;;;;;;;18.45;52.82;100925.97;4973490;28;8156;-74
2022/09/01 05:44:05;;;;;;;;;;;;;;;18.51;52.97;100924.34;4984908;28;6887;-74
2022/09/01 05:46:32;;;;;;;;;;;;;;;18.57;52.73;100929.69;4987558;28;7235;-73
2022/09/01 05:48:58;;;;;;;;;;;;;;;18.63;52.77;100923.75;4982838;28;6864;-75
2022/09/01 05:51:27;;;;;;;;;;;;;;;18.69;52.59;100923.91;4989568;28;6780;-74
2022/09/01 05:53:58;;;;;;;;;;;;;;;18.77;52.81;100926.66;4987508;28;6988;-74
2022/09/01 05:56:29;;;;;;;;;;;;;;;18.83;52.79;100932.88;4986386;28;6804;-74
2022/09/01 05:58:58;;;;;;;;;;;;;;;18.89;53.04;100937.31;4988471;28;8087;-74
2022/09/01 06:01:27;;;;;;;;;;;;;;;18.94;53.04;100933.13;4971908;28;6792;-74
2022/09/01 06:03:56;;;;;;;;;;;;;;;19.00;53.00;100934.97;4983690;28;7092;-74
2022/09/01 06:06:37;;;;;;;;;;;;;;;19.06;53.16;100939.44;4971189;28;7278;-74
2022/09/01 06:09:07;;;;;;;;;;;;;;;19.11;52.98;100932.63;4988746;28;7527;-74
2022/09/01 06:11:32;;;;;;;;;;;;;;;19.18;52.47;100928.44;4986499;28;6816;-74
2022/09/01 06:14:03;;;;;;;;;;;;;;;19.25;52.25;100935.50;4986497;28;6799;-74
2022/09/01 06:16:29;;;;;;;;;;;;;;;19.31;52.20;100929.56;4992527;28;6800;-75
2022/09/01 06:18:56;;;;;;;;;;;;;;;19.37;52.59;100932.28;4987820;28;7194;-75
2022/09/01 06:21:23;;;;;;;;;;;;;;;19.43;52.13;100940.22;4971466;28;6872;-75
2022/09/01 06:23:52;;;;;;;;;;;;;;;19.52;51.96;100937.81;4986343;28;7250;-75
2022/09/01 06:26:31;;;;;;;;;;;;;;;19.61;52.00;100939.69;4986858;28;6946;-75
2022/09/01 06:29:08;;;;;;;;;;;;;;;19.68;52.78;100940.69;4986425;28;6796;-75
2022/09/01 06:31:38;;;;;;;;;;;;;;;19.75;52.52;100937.34;4974021;28;6800;-75
2022/09/01 06:34:07;;;;;;;;;;;;;;;19.84;51.91;100937.53;4983712;28;7268;-75
2022/09/01 06:36:39;;;;;;;;;;;;;;;19.92;51.91;100939.41;4985538;28;6990;-74
2022/09/01 06:39:08;;;;;;;;;;;;;;;20.00;52.32;100950.84;4965970;28;7164;-74
2022/09/01 06:41:36;;;;;;;;;;;;;;;20.07;51.49;100939.69;4969033;28;6983;-74
2022/09/01 06:44:02;;;;;;;;;;;;;;;20.14;51.55;100945.00;4971553;28;7291;-74
2022/09/01 06:46:28;;;;;;;;;;;;;;;20.23;51.68;100950.38;4986754;28;7028;-75
2022/09/01 06:48:57;;;;;;;;;;;;;;;20.30;51.72;100949.63;4989974;28;7098;-75
2022/09/01 06:51:30;;;;;;;;;;;;;;;20.38;51.26;100953.25;4972929;28;6800;-75
2022/09/01 06:53:58;;;;;;;;;;;;;;;20.45;51.31;100949.00;4983788;28;7121;-74
2022/09/01 06:56:30;;;;;;;;;;;;;;;20.50;51.14;100947.31;4991473;28;6800;-74
2022/09/01 06:58:57;;;;;;;;;;;;;;;20.57;50.74;100955.25;4979913;28;8240;-74
2022/09/01 07:01:26;;;;;;;;;;;;;;;20.61;51.07;100960.53;4981282;28;7357;-74
2022/09/01 07:03:55;;;;;;;;;;;;;;;20.70;51.18;100958.91;4983387;28;6971;-75
2022/09/01 07:06:26;;;;;;;;;;;;;;;20.76;51.33;100944.25;4987152;28;6871;-74
2022/09/01 07:08:58;;;;;;;;;;;;;;;20.85;51.04;100951.34;4979110;28;7180;-75
2022/09/01 07:11:28;;;;;;;;;;;;;;;20.94;51.16;100950.63;4973020;28;7000;-74
2022/09/01 07:14:00;;;;;;;;;;;;;;;21.04;50.75;100957.69;4984549;28;7238;-75
2022/09/01 07:16:27;;;;;;;;;;;;;;;21.15;50.80;100955.25;4983330;28;7308;-75
2022/09/01 07:18:59;;;;;;;;;;;;;;;21.25;50.60;100958.84;4983331;28;7198;-75
2022/09/01 07:21:27;;;;;;;;;;;;;;;21.34;50.58;100945.03;4985687;28;6820;-75
2022/09/01 07:23:54;;;;;;;;;;;;;;;21.44;50.25;100953.84;4975934;28;7368;-74
2022/09/01 07:26:24;;;;;;;;;;;;;;;21.54;50.12;100952.25;4974688;28;7185;-75
2022/09/01 07:28:51;;;;;;;;;;;;;;;21.62;50.10;100959.28;4992561;28;6804;-75
2022/09/01 07:31:21;;;;;;;;;;;;;;;21.74;49.92;100955.06;4984595;28;7003;-75
2022/09/01 07:33:50;;;;;;;;;;;;;;;21.85;49.92;100958.66;4990090;28;6972;-75
2022/09/01 07:36:19;;;;;;;;;;;;;;;21.97;49.69;100960.53;4970305;28;6785;-75
2022/09/01 07:38:52;;;;;;;;;;;;;;;22.08;49.19;100955.44;4984658;28;7288;-75
2022/09/01 07:41:25;;;;;;;;;;;;;;;22.19;48.59;100959.00;4980305;28;7254;-75
2022/09/01 07:43:54;;;;;;;;;;;;;;;22.29;48.52;100957.31;4981038;28;7376;-75
2022/09/01 07:46:24;;;;;;;;;;;;;;;22.41;48.26;100966.16;4981603;28;6874;-75
2022/09/01 07:48:54;;;;;;;;;;;;;;;22.51;47.93;100959.28;4983208;28;7161;-74
2022/09/01 07:51:23;;;;;;;;;;;;;;;22.60;47.77;100965.47;4966733;28;7259;-75
2022/09/01 07:53:49;;;;;;;;;;;;;;;22.70;47.84;100955.06;4979257;28;7132;-75
2022/09/01 07:56:20;;;;;;;;;;;;;;;22.80;47.46;100956.88;4986102;28;7251;-75
2022/09/01 07:58:48;;;;;;;;;;;;;;;22.92;47.13;100968.25;4985112;28;6800;-75
2022/09/01 08:01:21;;;;;;;;;;;;;;;23.02;47.38;100956.97;4983328;28;7296;-75
2022/09/01 08:03:51;;;;;;;;;;;;;;;23.13;46.92;100954.41;4969580;28;7452;-75
2022/09/01 08:06:21;;;;;;;;;;;;;;;23.28;46.90;100957.13;4964725;28;7169;-75
2022/09/01 08:08:49;;;;;;;;;;;;;;;23.38;46.58;100955.44;4983232;28;7556;-75
2022/09/01 08:11:18;;;;;;;;;;;;;;;23.49;46.50;100962.44;4984454;28;6804;-74
2022/09/01 08:13:46;;;;;;;;;;;;;;;23.59;45.97;100964.22;4990029;28;7210;-74
2022/09/01 08:16:13;;;;;;;;;;;;;;;23.69;45.82;100960.75;4986326;28;7813;-74
2022/09/01 08:18:40;;;;;;;;;;;;;;;23.79;45.20;100966.00;4986363;28;7098;-75
2022/09/01 08:21:08;;;;;;;;;;;;;;;23.89;45.31;100965.16;4984067;28;9734;-75
2022/09/01 08:23:34;;;;;;;;;;;;;;;23.99;44.91;100964.31;4985398;28;6796;-75
2022/09/01 08:26:09;;;;;;;;;;;;;;;24.07;44.61;100955.63;4985455;28;6973;-75
2022/09/01 08:28:35;;;;;;;;;;;;;;;24.19;44.45;100967.81;4980112;28;6872;-76
2022/09/01 08:31:11;;;;;;;;;;;;;;;24.27;43.64;100956.50;4982066;28;6796;-76
2022/09/01 08:33:39;;;;;;;;;;;;;;;24.37;43.26;100953.88;4987453;28;7007;-76
2022/09/01 08:36:08;;;;;;;;;;;;;;;24.43;43.29;100953.84;4982167;28;6792;-75
2022/09/01 08:38:34;;;;;;;;;;;;;;;24.50;42.81;100955.59;4986084;28;7019;-75
2022/09/01 08:41:02;;;;;;;;;;;;;;;24.60;43.25;100958.22;4984694;28;6768;-75
2022/09/01 08:44:02;;;;;;;;;;;;;;;24.71;42.51;100948.56;4982618;28;6860;-76
2022/09/01 08:46:37;;;;;;;;;;;;;;;24.82;42.71;100957.34;4985320;28;6804;-75
2022/09/01 08:49:17;;;;;;;;;;;;;;;24.94;42.36;100955.56;4985466;28;7029;-75
2022/09/01 08:51:55;;;;;;;;;;;;;;;25.04;41.48;100956.38;4981293;28;6884;-76
2022/09/01 08:54:33;;;;;;;;;;;;;;;25.10;41.77;100946.75;4987200;28;7020;-75
2022/09/01 08:57:14;;;;;;;;;;;;;;;25.16;41.11;100956.38;4994625;28;6803;-75
2022/09/01 08:59:39;;;;;;;;;;;;;;;25.22;41.29;100958.94;4970803;28;6808;-76
2022/09/01 09:02:38;;;;;;;;;;;;;;;25.31;41.17;100950.19;4991554;28;6795;-76
2022/09/01 09:05:23;;;;;;;;;;;;;;;25.41;41.07;100950.13;4969396;28;7023;-76
2022/09/01 09:08:19;;;;;;;;;;;;;;;25.52;40.57;100950.97;4992912;28;6955;-75
2022/09/01 09:10:58;;;;;;;;;;;;;;;25.62;40.74;100950.03;4969087;28;7433;-76
2022/09/01 09:14:37;;;;;;;;;;;;;;;25.74;40.97;100948.22;4988738;28;6808;-76
2022/09/01 09:17:04;;;;;;;;;;;;;;;25.88;40.45;100946.38;4981336;28;6816;-75
2022/09/01 09:19:38;;;;;;;;;;;;;;;25.98;40.56;100941.03;4970273;28;6784;-75
2022/09/01 09:22:11;;;;;;;;;;;;;;;26.09;40.17;100941.84;4991114;28;6843;-75
2022/09/01 09:24:50;;;;;;;;;;;;;;;26.22;40.24;100949.66;4992693;28;6824;-76
2022/09/01 09:27:32;;;;;;;;;;;;;;;26.33;39.71;100937.28;4987161;28;7214;-75
2022/09/01 09:30:18;;;;;;;;;;;;;;;26.43;39.72;100935.47;4989000;28;6808;-76
2022/09/01 09:32:56;;;;;;;;;;;;;;;26.50;39.29;100938.88;4988220;28;12037;-75
2022/09/01 09:35:45;;;;;;;;;;;;;;;26.59;39.13;100933.53;4988555;28;6819;-75
2022/09/01 09:38:27;;;;;;;;;;;;;;;26.73;39.50;100923.72;4989502;28;6876;-75
2022/09/01 09:41:17;;;;;;;;;;;;;;;27.00;39.03;100923.50;4973407;28;7204;-75
2022/09/01 09:43:50;;;;;;;;;;;;;;;27.29;38.37;100914.34;4961936;28;7075;-76
2022/09/01 09:46:42;;;;;;;;;;;;;;;27.67;37.70;100914.72;4992742;28;7006;-76
2022/09/01 09:49:10;;;;;;;;;;;;;;;28.37;36.31;100914.44;4969087;28;7456;-76
2022/09/01 09:51:48;;;;;;;;;;;;;;;29.31;35.44;100907.34;4991802;28;6812;-76
2022/09/01 09:54:27;;;;;;;;;;;;;;;30.30;34.20;100902.34;4989447;28;7022;-76
2022/09/01 09:57:14;;;;;;;;;;;;;;;31.50;33.29;100900.72;4989923;28;6811;-76
2022/09/01 10:00:00;;;;;;;;;;;;;;;32.53;31.85;100888.41;4971240;28;6796;-76
2022/09/01 10:02:43;;;;;;;;;;;;;;;33.32;30.33;100892.56;4977832;28;6851;-77
2022/09/01 10:05:34;;;;;;;;;;;;;;;33.95;29.46;100893.59;4955133;28;7333;-76
2022/09/01 10:07:59;;;;;;;;;;;;;;;34.52;27.22;100887.56;4992714;28;6891;-76
2022/09/01 10:10:37;;;;;;;;;;;;;;;35.03;25.78;100879.91;4989974;28;7229;-74
2022/09/01 10:13:08;;;;;;;;;;;;;;;35.53;25.08;100888.22;4987749;28;7202;-74
2022/09/01 10:15:35;;;;;;;;;;;;;;;36.01;24.67;100882.28;4991416;28;7230;-73
2022/09/01 10:18:13;;;;;;;;;;;;;;;36.46;23.70;100868.44;4987619;28;6987;-74
2022/09/01 10:21:04;;;;;;;;;;;;;;;36.85;23.36;100875.22;4987917;28;6804;-74
2022/09/01 10:23:35;;;;;;;;;;;;;;;37.21;22.36;100876.81;4966850;28;6990;-75
2022/09/01 10:26:34;;;;;;;;;;;;;;;37.60;22.02;100873.75;4987163;28;7417;-74
2022/09/01 10:29:56;;;;;;;;;;;;;;;38.10;21.43;100870.81;4985609;28;7385;-74
2022/09/01 10:32:32;;;;;;;;;;;;;;;38.55;21.38;100866.25;4972045;28;6816;-74
2022/09/01 10:35:00;;;;;;;;;;;;;;;38.94;20.85;100868.28;4983118;28;7006;-74
2022/09/01 10:37:26;;;;;;;;;;;;;;;39.13;20.38;100866.16;4969494;28;6931;-74
2022/09/01 10:40:17;;;;;;;;;;;;;;;39.31;19.77;100852.50;4986190;28;6968;-74
2022/09/01 10:42:52;;;;;;;;;;;;;;;39.31;19.55;100852.50;4976248;28;7611;-74
2022/09/01 10:45:36;;;;;;;;;;;;;;;39.35;19.70;100847.75;4970308;28;6819;-74
2022/09/01 10:48:20;;;;;;;;;;;;;;;39.29;19.25;100843.69;4981824;28;6967;-75
2022/09/01 10:50:54;;;;;;;;;;;;;;;39.24;19.10;100840.47;4985050;28;6788;-74
2022/09/01 10:53:32;;;;;;;;;;;;;;;39.17;19.45;100850.75;4986255;28;7120;-74
2022/09/01 10:56:17;;;;;;;;;;;;;;;39.30;19.22;100851.63;4990420;28;6792;-74
2022/09/01 10:59:20;;;;;;;;;;;;;;;39.44;18.68;100844.50;4994045;28;7017;-75
2022/09/01 11:01:46;;;;;;;;;;;;;;;39.57;18.46;100845.41;4988099;28;7146;-75
2022/09/01 11:04:29;;;;;;;;;;;;;;;39.78;18.10;100841.31;4987426;28;6764;-74
2022/09/01 11:07:03;;;;;;;;;;;;;;;39.48;17.28;100826.38;4990400;28;6792;-75
2022/09/01 11:09:41;;;;;;;;;;;;;;;39.05;17.39;100836.31;4990224;28;7093;-74
2022/09/01 11:12:38;;;;;;;;;;;;;;;38.80;17.49;100831.69;4989511;28;7376;-74
2022/09/01 11:15:13;;;;;;;;;;;;;;;38.72;17.95;100834.84;4984044;28;7176;-74
2022/09/01 11:17:58;;;;;;;;;;;;;;;38.47;17.25;100831.06;4989696;28;6893;-76
2022/09/01 11:20:35;;;;;;;;;;;;;;;38.23;17.53;100823.59;4952934;28;8300;-76
2022/09/01 11:23:12;;;;;;;;;;;;;;;38.15;17.64;100826.75;4985750;28;6796;-74
2022/09/01 11:25:56;;;;;;;;;;;;;;;38.37;17.73;100832.59;4989763;28;6859;-74
2022/09/01 11:28:30;;;;;;;;;;;;;;;38.64;17.78;100827.31;4973800;28;7507;-74
2022/09/01 11:31:04;;;;;;;;;;;;;;;38.96;17.35;100828.91;4988471;28;6815;-75
2022/09/01 11:33:32;;;;;;;;;;;;;;;39.15;17.01;100831.19;4968228;28;6969;-74
2022/09/01 11:36:14;;;;;;;;;;;;;;;39.24;16.94;100835.09;4982241;28;6788;-74
2022/09/01 11:39:04;;;;;;;;;;;;;;;39.17;17.17;100818.59;4986676;28;6784;-74
2022/09/01 11:42:07;;;;;;;;;;;;;;;39.42;17.42;100814.25;4986689;28;6804;-74
2022/09/01 11:44:56;;;;;;;;;;;;;;;39.90;17.33;100815.50;4983792;28;6820;-74
2022/09/01 11:47:49;;;;;;;;;;;;;;;40.29;17.27;100812.78;4988469;28;6991;-74
2022/09/01 11:50:22;;;;;;;;;;;;;;;40.70;17.33;100817.00;4988348;28;6799;-74
2022/09/01 11:52:58;;;;;;;;;;;;;;;40.95;16.84;100820.56;4969669;28;7027;-74
2022/09/01 11:55:47;;;;;;;;;;;;;;;40.91;16.83;100816.41;4985584;28;7198;-74
2022/09/01 11:58:29;;;;;;;;;;;;;;;40.84;16.52;100815.13;4964788;28;6987;-74
2022/09/01 12:01:20;;;;;;;;;;;;;;;40.83;16.62;100808.94;4981988;28;8813;-74
2022/09/01 12:03:49;;;;;;;;;;;;;;;40.85;16.25;100808.78;4970068;28;7031;-75
2022/09/01 12:06:28;;;;;;;;;;;;;;;40.76;16.40;100802.25;4972077;28;7056;-74
2022/09/01 12:09:02;;;;;;;;;;;;;;;40.39;16.01;100805.81;4985040;28;7223;-74
2022/09/01 12:11:33;;;;;;;;;;;;;;;39.62;16.73;100809.34;4970201;28;7236;-74
2022/09/01 12:14:07;;;;;;;;;;;;;;;38.64;16.89;100803.22;4956759;28;6987;-74
2022/09/01 12:16:36;;;;;;;;;;;;;;;37.77;17.43;100805.88;4985288;28;6970;-74
2022/09/01 12:19:04;;;;;;;;;;;;;;;36.74;17.78;100795.72;4968683;28;6883;-74
2022/09/01 12:21:39;;;;;;;;;;;;;;;36.17;18.44;100802.41;4968814;28;7234;-74
2022/09/01 12:24:23;;;;;;;;;;;;;;;36.40;18.27;100797.59;4987937;28;7023;-74
2022/09/01 12:26:54;;;;;;;;;;;;;;;36.92;18.58;100799.19;4971194;28;6889;-74
2022/09/01 12:29:22;;;;;;;;;;;;;;;37.44;18.31;100788.25;4983578;28;6932;-73
2022/09/01 12:31:51;;;;;;;;;;;;;;;37.72;18.14;100795.47;4985240;28;6803;-74
2022/09/01 12:34:31;;;;;;;;;;;;;;;37.51;17.53;100800.25;4989590;28;6788;-75
2022/09/01 12:37:15;;;;;;;;;;;;;;;37.13;17.88;100790.91;4985362;28;7346;-76
2022/09/01 12:39:45;;;;;;;;;;;;;;;37.26;17.92;100796.41;4981788;28;7310;-76
2022/09/01 12:42:31;;;;;;;;;;;;;;;37.52;17.71;100792.16;4982979;28;7061;-75
2022/09/01 12:45:06;;;;;;;;;;;;;;;37.89;17.99;100788.25;4982404;28;6832;-76
2022/09/01 12:47:34;;;;;;;;;;;;;;;38.30;17.93;100781.28;4987803;28;6901;-73
2022/09/01 12:50:11;;;;;;;;;;;;;;;38.79;17.48;100782.63;4969075;28;7137;-74
2022/09/01 12:52:58;;;;;;;;;;;;;;;39.30;17.21;100781.94;4986929;28;7115;-74
2022/09/01 12:55:30;;;;;;;;;;;;;;;39.67;16.72;100773.19;4982252;28;6880;-74
2022/09/01 12:58:00;;;;;;;;;;;;;;;39.52;16.34;100767.09;4982017;28;7561;-73
2022/09/01 13:00:58;;;;;;;;;;;;;;;39.04;16.58;100773.00;4987310;28;6792;-73
2022/09/01 13:03:26;;;;;;;;;;;;;;;38.83;16.73;100761.84;4988784;28;6804;-74
2022/09/01 13:05:57;;;;;;;;;;;;;;;38.67;16.82;100756.66;4982630;28;7193;-74
2022/09/01 13:08:28;;;;;;;;;;;;;;;38.40;17.07;100758.31;4986289;28;6808;-74
2022/09/01 13:11:12;;;;;;;;;;;;;;;38.36;17.27;100748.75;4988214;28;7027;-74
2022/09/01 13:13:39;;;;;;;;;;;;;;;38.45;17.03;100758.03;4967388;28;8595;-74
2022/09/01 13:16:12;;;;;;;;;;;;;;;38.33;16.70;100743.63;4987403;28;6800;-74
2022/09/01 13:18:40;;;;;;;;;;;;;;;37.57;17.37;100751.81;4990698;28;6816;-74
2022/09/01 13:21:06;;;;;;;;;;;;;;;36.58;17.76;100757.53;4992037;28;7114;-74
2022/09/01 13:23:32;;;;;;;;;;;;;;;36.25;18.27;100759.28;4966563;28;7015;-74
2022/09/01 13:25:58;;;;;;;;;;;;;;;36.38;18.26;100746.97;4977322;28;7274;-74